Time;durP1;ratioP1;P1;durP2;ratioP2;P2;SDS_P1;SDS_P2;PMS_P1;PMS_P2;Temp;Humidity;BMP_temperature;BMP_pressure;BME280_temperature;BME280_humidity;BME280_pressure;Samples;Min_cycle;Max_cycle;Signal;HPM_P1;HPM_P2
2023/05/02 00:02:11;;;;;;;;;;;10.40;99.90;;;;;;5065971;28;20433;-85
2023/05/02 00:04:37;;;;;;;;;;;10.30;99.90;;;;;;5040964;28;20205;-84
2023/05/02 00:07:03;;;;;;;;;;;10.20;99.90;;;;;;5049933;28;19971;-84
2023/05/02 00:09:28;;;;;;;;;;;10.20;99.90;;;;;;5030647;28;19925;-84
2023/05/02 00:11:54;;;;;;;;;;;10.20;99.90;;;;;;5050300;28;20019;-85
2023/05/02 00:14:22;;;;;;;;;;;10.00;99.90;;;;;;5038544;28;20331;-86
2023/05/02 00:16:48;;;;;;;;;;;10.00;99.90;;;;;;5063574;28;19924;-86
2023/05/02 00:19:13;;;;;;;;;;;10.00;99.90;;;;;;5055073;28;19951;-85
2023/05/02 00:21:39;;;;;;;;;;;10.00;99.90;;;;;;5033000;28;19972;-85
2023/05/02 00:24:05;;;;;;;;;;;9.90;99.90;;;;;;5071998;28;19972;-85
2023/05/02 00:26:30;;;;;;;;;;;9.80;99.90;;;;;;5071034;28;19931;-85
2023/05/02 00:28:57;;;;;;;;;;;9.80;99.90;;;;;;5035714;28;20041;-85
2023/05/02 00:31:22;;;;;;;;;;;9.80;99.90;;;;;;5052460;28;19932;-85
2023/05/02 00:33:48;;;;;;;;;;;9.80;99.90;;;;;;5051377;28;19924;-84
2023/05/02 00:36:18;;;;;;;;;;;9.80;99.90;;;;;;5052600;28;19929;-84
2023/05/02 00:38:44;;;;;;;;;;;9.80;99.90;;;;;;5071486;28;19929;-85
2023/05/02 00:41:10;;;;;;;;;;;9.80;99.90;;;;;;5061321;28;19928;-85
2023/05/02 00:43:36;;;;;;;;;;;9.80;99.90;;;;;;5033038;28;19925;-85
2023/05/02 00:46:02;;;;;;;;;;;9.80;99.90;;;;;;5070968;28;19924;-85
2023/05/02 00:48:27;;;;;;;;;;;9.70;99.90;;;;;;5054544;28;19931;-85
2023/05/02 00:50:53;;;;;;;;;;;9.80;99.90;;;;;;5053124;28;19929;-86
2023/05/02 00:53:19;;;;;;;;;;;9.80;99.90;;;;;;5045582;28;20225;-86
2023/05/02 00:55:44;;;;;;;;;;;9.70;99.90;;;;;;5033701;28;19925;-85
2023/05/02 00:58:13;;;;;;;;;;;12.10;99.90;;;;;;5062755;28;19960;-85
2023/05/02 01:00:39;;;;;;;;;;;9.60;99.90;;;;;;5051280;28;20302;-85
2023/05/02 01:03:10;;;;;;;;;;;9.60;99.90;;;;;;5046230;28;19924;-85
2023/05/02 01:05:43;;;;;;;;;;;9.60;99.90;;;;;;5049064;28;19925;-85
2023/05/02 01:08:13;;;;;;;;;;;9.60;99.90;;;;;;5047393;28;19932;-85
2023/05/02 01:10:46;;;;;;;;;;;9.50;99.90;;;;;;5054502;28;20407;-85
2023/05/02 01:13:18;;;;;;;;;;;9.40;99.90;;;;;;5053592;28;20384;-85
2023/05/02 01:15:44;;;;;;;;;;;9.40;99.90;;;;;;5048197;28;20321;-85
2023/05/02 01:18:12;;;;;;;;;;;9.40;99.90;;;;;;5053980;28;19991;-86
2023/05/02 01:20:40;;;;;;;;;;;9.40;99.90;;;;;;5067040;28;19925;-85
2023/05/02 01:23:12;;;;;;;;;;;9.40;99.90;;;;;;5050883;28;20042;-85
2023/05/02 01:25:54;;;;;;;;;;;9.40;99.90;;;;;;5072870;28;19931;-85
2023/05/02 01:28:38;;;;;;;;;;;9.40;99.90;;;;;;5051621;28;19924;-85
2023/05/02 01:31:05;;;;;;;;;;;9.40;99.90;;;;;;5057115;28;20284;-85
2023/05/02 01:33:31;;;;;;;;;;;9.50;99.90;;;;;;5063324;28;19944;-84
2023/05/02 01:35:57;;;;;;;;;;;9.50;99.90;;;;;;5070175;28;20015;-85
2023/05/02 01:38:24;;;;;;;;;;;9.70;99.90;;;;;;5057728;28;19936;-87
2023/05/02 01:40:50;;;;;;;;;;;9.60;99.90;;;;;;5073473;28;19985;-87
2023/05/02 01:43:17;;;;;;;;;;;9.60;99.90;;;;;;5055210;28;19932;-85
2023/05/02 01:45:44;;;;;;;;;;;9.50;99.90;;;;;;5098152;28;19932;-85
2023/05/02 01:48:10;;;;;;;;;;;9.50;99.90;;;;;;5056982;28;19929;-86
2023/05/02 01:50:37;;;;;;;;;;;9.40;99.90;;;;;;5041207;28;20277;-85
2023/05/02 01:53:03;;;;;;;;;;;9.40;99.90;;;;;;5035297;28;19925;-83
2023/05/02 01:55:28;;;;;;;;;;;9.40;99.90;;;;;;5045466;28;19940;-83
2023/05/02 01:57:55;;;;;;;;;;;9.50;99.90;;;;;;5051928;28;20287;-83
2023/05/02 02:00:22;;;;;;;;;;;9.30;99.90;;;;;;5051290;28;19924;-83
2023/05/02 02:02:48;;;;;;;;;;;9.20;99.90;;;;;;5073439;28;19924;-82
2023/05/02 02:05:16;;;;;;;;;;;9.20;99.90;;;;;;5052832;28;19929;-85
2023/05/02 02:07:42;;;;;;;;;;;9.10;99.90;;;;;;5095653;28;19947;-86
2023/05/02 02:10:07;;;;;;;;;;;9.10;99.90;;;;;;5056923;28;19928;-85
2023/05/02 02:12:52;;;;;;;;;;;9.20;99.90;;;;;;5055553;28;20269;-85
2023/05/02 02:15:30;;;;;;;;;;;9.00;99.90;;;;;;5073229;28;19955;-86
2023/05/02 02:18:00;;;;;;;;;;;8.90;99.90;;;;;;5039939;28;20368;-84
2023/05/02 02:20:27;;;;;;;;;;;8.90;99.90;;;;;;5047346;28;19929;-85
2023/05/02 02:22:53;;;;;;;;;;;8.80;99.90;;;;;;5073100;28;19924;-85
2023/05/02 02:25:19;;;;;;;;;;;9.00;99.90;;;;;;5075220;28;19925;-86
2023/05/02 02:27:46;;;;;;;;;;;9.00;99.90;;;;;;5044717;28;20300;-85
2023/05/02 02:30:11;;;;;;;;;;;8.90;99.90;;;;;;5059888;28;19966;-85
2023/05/02 02:32:37;;;;;;;;;;;8.90;99.90;;;;;;5073409;28;19956;-85
2023/05/02 02:35:03;;;;;;;;;;;8.80;99.90;;;;;;5053793;28;20050;-85
2023/05/02 02:37:34;;;;;;;;;;;8.80;99.90;;;;;;5071877;28;19925;-84
2023/05/02 02:40:04;;;;;;;;;;;7.30;99.90;;;;;;5064424;28;19924;-85
2023/05/02 02:42:35;;;;;;;;;;;8.90;99.90;;;;;;5056695;28;19978;-86
2023/05/02 02:45:06;;;;;;;;;;;8.80;99.90;;;;;;5054994;28;19925;-84
2023/05/02 02:47:40;;;;;;;;;;;8.70;99.90;;;;;;5073326;28;19928;-84
2023/05/02 02:50:24;;;;;;;;;;;8.70;99.90;;;;;;5053542;28;19925;-86
2023/05/02 02:53:01;;;;;;;;;;;9.00;99.90;;;;;;5065513;28;20406;-85
2023/05/02 02:55:28;;;;;;;;;;;8.60;99.90;;;;;;5072402;28;20259;-84
2023/05/02 02:57:57;;;;;;;;;;;8.50;99.90;;;;;;5072294;28;20388;-84
2023/05/02 03:00:24;;;;;;;;;;;8.60;99.90;;;;;;5056335;28;19925;-84
2023/05/02 03:02:52;;;;;;;;;;;8.40;99.90;;;;;;5071638;28;20331;-85
2023/05/02 03:05:18;;;;;;;;;;;8.40;99.90;;;;;;5048991;28;19925;-84
2023/05/02 03:07:43;;;;;;;;;;;8.30;99.90;;;;;;5072868;28;19928;-85
2023/05/02 03:10:10;;;;;;;;;;;8.30;99.90;;;;;;5052596;28;20261;-85
2023/05/02 03:12:39;;;;;;;;;;;8.30;99.90;;;;;;5039119;28;20239;-84
2023/05/02 03:15:08;;;;;;;;;;;6.80;99.90;;;;;;5035519;28;20353;-84
2023/05/02 03:17:33;;;;;;;;;;;8.10;99.90;;;;;;5072178;28;19935;-84
2023/05/02 03:19:59;;;;;;;;;;;8.20;99.90;;;;;;5036792;28;20067;-85
2023/05/02 03:22:24;;;;;;;;;;;8.10;99.90;;;;;;5033064;28;20408;-85
2023/05/02 03:24:50;;;;;;;;;;;8.00;99.90;;;;;;5072382;28;20007;-85
2023/05/02 03:27:16;;;;;;;;;;;7.90;99.90;;;;;;5054724;28;19925;-84
2023/05/02 03:29:41;;;;;;;;;;;8.00;99.90;;;;;;5055455;28;19939;-85
2023/05/02 03:32:08;;;;;;;;;;;8.00;99.90;;;;;;5055416;28;19935;-86
2023/05/02 03:34:33;;;;;;;;;;;7.90;99.90;;;;;;5055238;28;20364;-85
2023/05/02 03:36:59;;;;;;;;;;;7.90;99.90;;;;;;5052105;28;19928;-84
2023/05/02 03:39:24;;;;;;;;;;;7.90;99.90;;;;;;5054307;28;19935;-85
2023/05/02 03:41:50;;;;;;;;;;;7.90;99.90;;;;;;5053978;28;19931;-87
2023/05/02 03:44:16;;;;;;;;;;;7.90;99.90;;;;;;5035542;28;20308;-85
2023/05/02 03:46:41;;;;;;;;;;;8.00;99.90;;;;;;5037384;28;19925;-85
2023/05/02 03:49:07;;;;;;;;;;;7.90;99.90;;;;;;5033233;28;20277;-85
2023/05/02 03:51:33;;;;;;;;;;;7.90;99.90;;;;;;5051642;28;19936;-84
2023/05/02 03:53:59;;;;;;;;;;;7.90;99.90;;;;;;5053537;28;20299;-85
2023/05/02 03:56:25;;;;;;;;;;;7.90;99.90;;;;;;5054901;28;20330;-84
2023/05/02 03:58:50;;;;;;;;;;;7.90;99.90;;;;;;5037880;28;19931;-84
2023/05/02 04:01:16;;;;;;;;;;;7.80;99.90;;;;;;5058033;28;19974;-84
2023/05/02 04:03:42;;;;;;;;;;;7.80;99.90;;;;;;5036710;28;20029;-83
2023/05/02 04:06:07;;;;;;;;;;;7.80;99.90;;;;;;5055351;28;19939;-84
2023/05/02 04:08:33;;;;;;;;;;;7.80;99.90;;;;;;5055672;28;19929;-84
2023/05/02 04:10:59;;;;;;;;;;;7.60;99.90;;;;;;5071923;28;19925;-84
2023/05/02 04:13:24;;;;;;;;;;;7.70;99.90;;;;;;5053200;28;20015;-85
2023/05/02 04:15:50;;;;;;;;;;;7.60;99.90;;;;;;5063838;28;20028;-84
2023/05/02 04:18:15;;;;;;;;;;;7.70;99.90;;;;;;5053628;28;20370;-86
2023/05/02 04:20:44;;;;;;;;;;;7.60;99.90;;;;;;5035258;28;19925;-84
2023/05/02 04:23:10;;;;;;;;;;;7.60;99.90;;;;;;5051835;28;20368;-85
2023/05/02 04:25:35;;;;;;;;;;;7.70;99.90;;;;;;5034653;28;20016;-85
2023/05/02 04:28:01;;;;;;;;;;;7.70;99.90;;;;;;5043621;28;20418;-85
2023/05/02 04:30:27;;;;;;;;;;;7.60;99.90;;;;;;5062254;28;19982;-84
2023/05/02 04:32:52;;;;;;;;;;;7.60;99.90;;;;;;5052825;28;19931;-82
2023/05/02 04:35:18;;;;;;;;;;;7.50;99.90;;;;;;5038154;28;20299;-84
2023/05/02 04:37:44;;;;;;;;;;;7.60;99.90;;;;;;5038620;28;19958;-83
2023/05/02 04:40:10;;;;;;;;;;;7.60;99.90;;;;;;5054718;28;20015;-82
2023/05/02 04:42:35;;;;;;;;;;;7.50;99.90;;;;;;5063310;28;19925;-83
2023/05/02 04:45:01;;;;;;;;;;;7.50;99.90;;;;;;5046941;28;20245;-83
2023/05/02 04:47:27;;;;;;;;;;;7.50;99.90;;;;;;5046804;28;20346;-82
2023/05/02 04:49:52;;;;;;;;;;;7.40;99.90;;;;;;5052877;28;20080;-83
2023/05/02 04:52:18;;;;;;;;;;;7.50;99.90;;;;;;5028036;28;19925;-82
2023/05/02 04:54:44;;;;;;;;;;;7.50;99.90;;;;;;5052305;28;20022;-83
2023/05/02 04:57:09;;;;;;;;;;;7.90;99.90;;;;;;5049558;28;19925;-83
2023/05/02 04:59:35;;;;;;;;;;;7.50;99.90;;;;;;5032414;28;19932;-83
2023/05/02 05:02:01;;;;;;;;;;;7.40;99.90;;;;;;5068560;28;19925;-83
2023/05/02 05:04:27;;;;;;;;;;;7.40;99.90;;;;;;5073995;28;19931;-84
2023/05/02 05:06:53;;;;;;;;;;;7.40;99.90;;;;;;5037945;28;19928;-84
2023/05/02 05:09:19;;;;;;;;;;;7.40;99.90;;;;;;5051556;28;19947;-87
2023/05/02 05:11:45;;;;;;;;;;;6.40;99.90;;;;;;5045717;28;20396;-84
2023/05/02 05:14:10;;;;;;;;;;;7.50;99.90;;;;;;5042048;28;19931;-83
2023/05/02 05:16:36;;;;;;;;;;;7.50;99.90;;;;;;5073749;28;19924;-83
2023/05/02 05:19:03;;;;;;;;;;;7.50;99.90;;;;;;5073951;28;20341;-84
2023/05/02 05:21:28;;;;;;;;;;;7.50;99.90;;;;;;5054252;28;20404;-84
2023/05/02 05:23:54;;;;;;;;;;;7.50;99.90;;;;;;5072042;28;19929;-85
2023/05/02 05:26:20;;;;;;;;;;;7.50;99.90;;;;;;5037554;28;19925;-87
2023/05/02 05:28:45;;;;;;;;;;;7.60;99.90;;;;;;5039777;28;19963;-84
2023/05/02 05:31:12;;;;;;;;;;;7.60;99.90;;;;;;5057611;28;20241;-85
2023/05/02 05:33:38;;;;;;;;;;;7.50;99.90;;;;;;5062495;28;20220;-85
2023/05/02 05:36:05;;;;;;;;;;;6.90;99.90;;;;;;5060349;28;19928;-84
2023/05/02 05:38:30;;;;;;;;;;;7.70;99.90;;;;;;5058391;28;20022;-85
2023/05/02 05:40:56;;;;;;;;;;;6.60;99.90;;;;;;5054330;28;20027;-85
2023/05/02 05:43:22;;;;;;;;;;;7.70;99.90;;;;;;5057742;28;19994;-84
2023/05/02 05:45:50;;;;;;;;;;;7.80;99.90;;;;;;5059432;28;19955;-84
2023/05/02 05:48:16;;;;;;;;;;;7.50;99.90;;;;;;5058600;28;19931;-84
2023/05/02 05:50:42;;;;;;;;;;;7.50;99.90;;;;;;5037710;28;19924;-84
2023/05/02 05:53:07;;;;;;;;;;;7.30;99.90;;;;;;5039315;28;19938;-87
2023/05/02 05:55:33;;;;;;;;;;;4.80;99.90;;;;;;5058305;28;19934;-87
2023/05/02 05:57:59;;;;;;;;;;;6.20;99.90;;;;;;5051851;28;19925;-85
2023/05/02 06:00:25;;;;;;;;;;;7.50;99.90;;;;;;5053724;28;20364;-86
2023/05/02 06:02:50;;;;;;;;;;;7.60;99.90;;;;;;5043224;28;19925;-86
2023/05/02 06:05:16;;;;;;;;;;;7.60;99.90;;;;;;5049932;28;19924;-86
2023/05/02 06:07:42;;;;;;;;;;;7.60;99.90;;;;;;5054689;28;19925;-85
2023/05/02 06:10:08;;;;;;;;;;;7.50;99.90;;;;;;5043732;28;19924;-88
2023/05/02 06:12:34;;;;;;;;;;;7.60;99.90;;;;;;5053509;28;20509;-86
2023/05/02 06:15:00;;;;;;;;;;;7.70;99.90;;;;;;5050819;28;19964;-86
2023/05/02 06:17:26;;;;;;;;;;;7.60;99.90;;;;;;5057378;28;19964;-88
2023/05/02 06:19:51;;;;;;;;;;;7.80;99.90;;;;;;5052756;28;20353;-88
2023/05/02 06:22:17;;;;;;;;;;;7.80;99.90;;;;;;5050042;28;19924;-88
2023/05/02 06:24:42;;;;;;;;;;;7.80;99.90;;;;;;5054801;28;19925;-88
2023/05/02 06:27:08;;;;;;;;;;;8.10;99.90;;;;;;5047300;28;19925;-87
2023/05/02 06:29:34;;;;;;;;;;;8.30;99.90;;;;;;5054651;28;19928;-87
2023/05/02 06:31:59;;;;;;;;;;;5.90;99.90;;;;;;5054411;28;19925;-87
2023/05/02 06:34:25;;;;;;;;;;;7.90;99.90;;;;;;5038543;28;19924;-87
2023/05/02 06:36:55;;;;;;;;;;;7.80;99.90;;;;;;5073844;28;19924;-87
2023/05/02 06:39:21;;;;;;;;;;;8.40;99.90;;;;;;5054511;28;19944;-87
2023/05/02 06:41:47;;;;;;;;;;;8.20;99.90;;;;;;5053734;28;20038;-87
2023/05/02 06:44:13;;;;;;;;;;;7.80;99.90;;;;;;5068301;28;19971;-87
2023/05/02 06:46:38;;;;;;;;;;;7.80;99.90;;;;;;5073491;28;19978;-87
2023/05/02 06:49:12;;;;;;;;;;;5.30;99.90;;;;;;5037149;28;19955;-87
2023/05/02 06:51:38;;;;;;;;;;;7.80;99.90;;;;;;5073785;28;19947;-87
2023/05/02 06:54:03;;;;;;;;;;;7.90;99.90;;;;;;5056291;28;19929;-88
2023/05/02 06:56:30;;;;;;;;;;;7.90;99.90;;;;;;5055956;28;19925;-88
2023/05/02 06:58:56;;;;;;;;;;;6.70;99.90;;;;;;5053779;28;19924;-87
2023/05/02 07:01:21;;;;;;;;;;;7.80;99.90;;;;;;5056050;28;19977;-88
2023/05/02 07:03:47;;;;;;;;;;;7.90;99.90;;;;;;5072867;28;20044;-90
2023/05/02 07:06:13;;;;;;;;;;;8.10;99.90;;;;;;5035874;28;19978;-87
2023/05/02 07:08:38;;;;;;;;;;;8.20;99.90;;;;;;5056765;28;19925;-87
2023/05/02 07:11:04;;;;;;;;;;;8.00;99.90;;;;;;5066328;28;19951;-88
2023/05/02 07:13:30;;;;;;;;;;;8.00;99.90;;;;;;5056634;28;20276;-86
2023/05/02 07:15:55;;;;;;;;;;;8.10;99.90;;;;;;5054431;28;19925;-86
2023/05/02 07:18:21;;;;;;;;;;;8.20;99.90;;;;;;5055878;28;19924;-87
2023/05/02 07:20:47;;;;;;;;;;;8.50;99.90;;;;;;5072764;28;19993;-88
2023/05/02 07:23:12;;;;;;;;;;;8.30;99.90;;;;;;5053198;28;19925;-86
2023/05/02 07:25:38;;;;;;;;;;;8.40;99.90;;;;;;5052687;28;19925;-87
2023/05/02 07:28:05;;;;;;;;;;;8.30;99.90;;;;;;5051764;28;20295;-87
2023/05/02 07:30:30;;;;;;;;;;;8.40;99.90;;;;;;5051497;28;20015;-87
2023/05/02 07:32:58;;;;;;;;;;;8.20;99.90;;;;;;5050412;28;19925;-87
2023/05/02 07:35:24;;;;;;;;;;;8.50;99.90;;;;;;5052018;28;20031;-87
2023/05/02 07:37:52;;;;;;;;;;;8.20;99.90;;;;;;5039205;28;20070;-87
2023/05/02 07:40:20;;;;;;;;;;;8.30;99.90;;;;;;5055978;28;19947;-87
2023/05/02 07:42:46;;;;;;;;;;;8.40;99.90;;;;;;5038823;28;19924;-87
2023/05/02 07:45:11;;;;;;;;;;;8.40;99.90;;;;;;5053578;28;19975;-88
2023/05/02 07:47:37;;;;;;;;;;;8.40;99.90;;;;;;5041164;28;19947;-88
2023/05/02 07:50:03;;;;;;;;;;;9.00;99.90;;;;;;5055463;28;19928;-88
2023/05/02 07:52:28;;;;;;;;;;;8.80;99.90;;;;;;5054328;28;19932;-87
2023/05/02 07:54:55;;;;;;;;;;;9.00;99.90;;;;;;5071962;28;19935;-88
2023/05/02 07:57:26;;;;;;;;;;;8.70;99.90;;;;;;5052981;28;19929;-86
2023/05/02 07:59:52;;;;;;;;;;;8.90;99.90;;;;;;5056005;28;19939;-86
2023/05/02 08:02:19;;;;;;;;;;;9.00;99.90;;;;;;5073048;28;20023;-86
2023/05/02 08:04:46;;;;;;;;;;;9.10;99.90;;;;;;5051936;28;20376;-86
2023/05/02 08:07:12;;;;;;;;;;;9.70;99.90;;;;;;5054940;28;20081;-85
2023/05/02 08:09:38;;;;;;;;;;;9.40;99.90;;;;;;5052125;28;20015;-85
2023/05/02 08:12:04;;;;;;;;;;;10.10;99.90;;;;;;5051140;28;20425;-85
2023/05/02 08:14:32;;;;;;;;;;;9.60;99.90;;;;;;5071728;28;19924;-85
2023/05/02 08:16:58;;;;;;;;;;;9.30;99.90;;;;;;5071745;28;19925;-86
2023/05/02 08:19:24;;;;;;;;;;;9.80;99.90;;;;;;5071874;28;19951;-85
2023/05/02 08:21:49;;;;;;;;;;;9.20;99.90;;;;;;5063264;28;19924;-86
2023/05/02 08:24:15;;;;;;;;;;;9.10;99.90;;;;;;5071591;28;19974;-85
2023/05/02 08:26:43;;;;;;;;;;;9.10;99.90;;;;;;5054482;28;20015;-86
2023/05/02 08:29:10;;;;;;;;;;;7.20;99.90;;;;;;5050027;28;20384;-86
2023/05/02 08:31:36;;;;;;;;;;;9.10;99.90;;;;;;5054220;28;19959;-86
2023/05/02 08:34:02;;;;;;;;;;;9.20;99.90;;;;;;5076408;28;19932;-85
2023/05/02 08:36:27;;;;;;;;;;;9.50;99.90;;;;;;5056831;28;19925;-86
2023/05/02 08:38:53;;;;;;;;;;;9.10;99.90;;;;;;5076691;28;19929;-86
2023/05/02 08:41:22;;;;;;;;;;;9.20;99.90;;;;;;5059973;28;19925;-86
2023/05/02 08:43:47;;;;;;;;;;;9.50;99.90;;;;;;5075393;28;20336;-85
2023/05/02 08:46:14;;;;;;;;;;;9.40;99.90;;;;;;5057428;28;19929;-86
2023/05/02 08:48:40;;;;;;;;;;;9.60;99.90;;;;;;5075824;28;20284;-86
2023/05/02 08:51:10;;;;;;;;;;;9.80;99.90;;;;;;5033133;28;19936;-86
2023/05/02 08:53:36;;;;;;;;;;;10.10;99.90;;;;;;5053117;28;19968;-86
2023/05/02 08:56:02;;;;;;;;;;;10.00;99.90;;;;;;5050144;28;20003;-85
2023/05/02 08:58:29;;;;;;;;;;;10.10;99.90;;;;;;5063307;28;20014;-86
2023/05/02 09:00:55;;;;;;;;;;;11.10;99.90;;;;;;5052326;28;19924;-86
2023/05/02 09:03:43;;;;;;;;;;;10.10;99.90;;;;;;5052486;28;19924;-85
2023/05/02 09:06:14;;;;;;;;;;;10.40;99.90;;;;;;5052562;28;19971;-86
2023/05/02 09:08:40;;;;;;;;;;;9.90;99.90;;;;;;5073234;28;19925;-85
2023/05/02 09:11:07;;;;;;;;;;;10.10;99.90;;;;;;5057989;28;19935;-86
2023/05/02 09:13:36;;;;;;;;;;;10.20;99.90;;;;;;5058944;28;19932;-86
2023/05/02 09:16:14;;;;;;;;;;;10.20;99.60;;;;;;5058106;28;20007;-86
2023/05/02 09:18:47;;;;;;;;;;;9.80;99.90;;;;;;5058152;28;19958;-86
2023/05/02 09:21:13;;;;;;;;;;;10.80;99.90;;;;;;5055192;28;19924;-86
2023/05/02 09:23:43;;;;;;;;;;;10.10;99.90;;;;;;5074520;28;19936;-88
2023/05/02 09:26:13;;;;;;;;;;;10.00;99.90;;;;;;5054877;28;20393;-87
2023/05/02 09:28:39;;;;;;;;;;;10.10;99.90;;;;;;5075119;28;20000;-86
2023/05/02 09:31:13;;;;;;;;;;;9.70;99.90;;;;;;5053398;28;19924;-86
2023/05/02 09:33:40;;;;;;;;;;;10.10;99.90;;;;;;5071108;28;19982;-86
2023/05/02 09:36:06;;;;;;;;;;;10.20;99.90;;;;;;5060177;28;19959;-87
2023/05/02 09:38:32;;;;;;;;;;;8.70;99.90;;;;;;5060206;28;19932;-87
2023/05/02 09:40:58;;;;;;;;;;;10.00;99.90;;;;;;5060365;28;19925;-85
2023/05/02 09:43:29;;;;;;;;;;;9.90;99.90;;;;;;5055520;28;20007;-86
2023/05/02 09:46:08;;;;;;;;;;;9.90;99.90;;;;;;5052591;28;20292;-86
2023/05/02 09:48:52;;;;;;;;;;;9.90;99.90;;;;;;5078621;28;19932;-86
2023/05/02 09:51:19;;;;;;;;;;;9.80;99.90;;;;;;5073024;28;20296;-87
2023/05/02 09:53:45;;;;;;;;;;;10.00;99.90;;;;;;5056617;28;20010;-86
2023/05/02 09:56:10;;;;;;;;;;;10.10;99.90;;;;;;5076552;28;19929;-86
2023/05/02 09:58:36;;;;;;;;;;;10.40;99.90;;;;;;5064036;28;19939;-86
2023/05/02 10:01:02;;;;;;;;;;;10.60;99.90;;;;;;5054287;28;20264;-87
2023/05/02 10:03:28;;;;;;;;;;;11.70;99.90;;;;;;5052620;28;19925;-87
2023/05/02 10:05:54;;;;;;;;;;;11.70;99.90;;;;;;5057639;28;19928;-87
2023/05/02 10:08:20;;;;;;;;;;;11.20;99.90;;;;;;5050353;28;19924;-87
2023/05/02 10:10:50;;;;;;;;;;;11.70;99.90;;;;;;5039341;28;19931;-87
2023/05/02 10:13:20;;;;;;;;;;;11.00;99.90;;;;;;5074248;28;19924;-87
2023/05/02 10:15:48;;;;;;;;;;;10.90;99.90;;;;;;5056915;28;19924;-88
2023/05/02 10:18:25;;;;;;;;;;;10.60;99.90;;;;;;5045640;28;19963;-86
2023/05/02 10:20:58;;;;;;;;;;;9.50;99.90;;;;;;5053786;28;20376;-87
2023/05/02 10:23:28;;;;;;;;;;;10.80;99.90;;;;;;5039566;28;19929;-87
2023/05/02 10:25:54;;;;;;;;;;;11.40;98.90;;;;;;5060766;28;19929;-86
2023/05/02 10:28:20;;;;;;;;;;;11.00;99.90;;;;;;5056789;28;19934;-87
2023/05/02 10:30:46;;;;;;;;;;;11.40;99.40;;;;;;5056453;28;19924;-86
2023/05/02 10:33:12;;;;;;;;;;;10.90;99.90;;;;;;5065147;28;20016;-86
2023/05/02 10:35:38;;;;;;;;;;;10.80;99.90;;;;;;5057163;28;20356;-86
2023/05/02 10:38:05;;;;;;;;;;;10.90;99.90;;;;;;5073514;28;19928;-86
2023/05/02 10:40:31;;;;;;;;;;;11.00;99.90;;;;;;5031926;28;19925;-87
2023/05/02 10:42:56;;;;;;;;;;;11.10;99.90;;;;;;5073235;28;19979;-87
2023/05/02 10:45:29;;;;;;;;;;;11.00;99.90;;;;;;5037137;28;20261;-87
2023/05/02 10:48:13;;;;;;;;;;;10.90;99.90;;;;;;5053253;28;19924;-87
2023/05/02 10:50:46;;;;;;;;;;;10.90;99.90;;;;;;5053076;28;20206;-86
2023/05/02 10:53:24;;;;;;;;;;;10.90;99.90;;;;;;5070910;28;20042;-86
2023/05/02 10:56:08;;;;;;;;;;;10.60;99.90;;;;;;5057702;28;19990;-87
2023/05/02 10:58:34;;;;;;;;;;;11.10;99.90;;;;;;5069846;28;19983;-85
2023/05/02 11:01:18;;;;;;;;;;;10.80;99.90;;;;;;5070246;28;20353;-85
2023/05/02 11:03:57;;;;;;;;;;;10.50;99.90;;;;;;5063254;28;19968;-86
2023/05/02 11:06:24;;;;;;;;;;;10.30;99.90;;;;;;5050648;28;20287;-86
2023/05/02 11:09:19;;;;;;;;;;;10.40;99.90;;;;;;5053101;28;19936;-86
2023/05/02 11:11:45;;;;;;;;;;;10.50;99.90;;;;;;5046473;28;19924;-86
2023/05/02 11:14:11;;;;;;;;;;;10.70;99.90;;;;;;5056408;28;19960;-86
2023/05/02 11:16:56;;;;;;;;;;;10.80;99.90;;;;;;5052552;28;20019;-86
2023/05/02 11:19:21;;;;;;;;;;;10.90;99.90;;;;;;5055613;28;20352;-86
2023/05/02 11:21:47;;;;;;;;;;;11.00;99.90;;;;;;5052972;28;19924;-85
2023/05/02 11:24:31;;;;;;;;;;;11.20;99.90;;;;;;5051480;28;20063;-86
2023/05/02 11:27:20;;;;;;;;;;;11.30;99.90;;;;;;5050094;28;19955;-86
2023/05/02 11:29:55;;;;;;;;;;;10.00;99.90;;;;;;5055611;28;20261;-86
2023/05/02 11:32:21;;;;;;;;;;;11.10;99.90;;;;;;5055032;28;19931;-87
2023/05/02 11:34:51;;;;;;;;;;;11.10;99.90;;;;;;5072563;28;19925;-86
2023/05/02 11:37:17;;;;;;;;;;;11.10;99.90;;;;;;5052988;28;19925;-86
2023/05/02 11:39:44;;;;;;;;;;;11.00;99.90;;;;;;5037561;28;20000;-86
2023/05/02 11:42:29;;;;;;;;;;;11.10;99.90;;;;;;5035941;28;20385;-86
2023/05/02 11:44:55;;;;;;;;;;;11.20;99.90;;;;;;5051340;28;20020;-86
2023/05/02 11:47:21;;;;;;;;;;;11.00;99.90;;;;;;5056120;28;20280;-86
2023/05/02 11:49:47;;;;;;;;;;;11.10;99.90;;;;;;5051396;28;19928;-87
2023/05/02 11:52:12;;;;;;;;;;;11.10;99.90;;;;;;5055309;28;20376;-87
2023/05/02 11:54:38;;;;;;;;;;;11.30;99.90;;;;;;5071629;28;19935;-86
2023/05/02 11:57:04;;;;;;;;;;;11.50;99.90;;;;;;5071780;28;20283;-87
2023/05/02 11:59:32;;;;;;;;;;;12.10;99.90;;;;;;5051902;28;20011;-87
2023/05/02 12:01:59;;;;;;;;;;;11.50;99.90;;;;;;5034516;28;19925;-87
2023/05/02 12:04:27;;;;;;;;;;;11.50;99.90;;;;;;5071089;28;19925;-87
2023/05/02 12:06:56;;;;;;;;;;;11.40;99.90;;;;;;5055756;28;19924;-87
2023/05/02 12:09:22;;;;;;;;;;;11.10;99.90;;;;;;5071946;28;19973;-86
2023/05/02 12:11:52;;;;;;;;;;;8.90;99.90;;;;;;5053233;28;20014;-87
2023/05/02 12:14:27;;;;;;;;;;;11.00;99.90;;;;;;5062612;28;20011;-88
2023/05/02 12:16:53;;;;;;;;;;;11.00;99.90;;;;;;5084391;28;20276;-85
2023/05/02 12:19:20;;;;;;;;;;;10.90;99.90;;;;;;5051141;28;19924;-88
2023/05/02 12:21:46;;;;;;;;;;;11.00;99.90;;;;;;5075639;28;19924;-86
2023/05/02 12:24:13;;;;;;;;;;;11.10;99.90;;;;;;5045676;28;20296;-88
2023/05/02 12:26:39;;;;;;;;;;;9.70;99.90;;;;;;5055999;28;19940;-86
2023/05/02 12:29:06;;;;;;;;;;;11.40;99.90;;;;;;5065957;28;19951;-88
2023/05/02 12:31:32;;;;;;;;;;;11.80;99.90;;;;;;5071217;28;19924;-86
2023/05/02 12:34:01;;;;;;;;;;;11.80;99.90;;;;;;5024115;28;20031;-87
2023/05/02 12:36:29;;;;;;;;;;;12.10;99.90;;;;;;5054017;28;20416;-87
2023/05/02 12:38:58;;;;;;;;;;;11.60;99.90;;;;;;5055260;28;19950;-87
2023/05/02 12:41:32;;;;;;;;;;;11.40;99.80;;;;;;5054679;28;20304;-87
2023/05/02 12:43:59;;;;;;;;;;;11.50;99.50;;;;;;5058632;28;20359;-87
2023/05/02 12:46:27;;;;;;;;;;;11.80;99.90;;;;;;5051397;28;19925;-88
2023/05/02 12:49:07;;;;;;;;;;;10.50;99.90;;;;;;5043752;28;20012;-87
2023/05/02 12:51:33;;;;;;;;;;;11.30;99.90;;;;;;5067339;28;19972;-88
2023/05/02 12:53:58;;;;;;;;;;;11.40;99.90;;;;;;5056801;28;19932;-87
2023/05/02 12:56:30;;;;;;;;;;;11.50;99.90;;;;;;5076457;28;19924;-88
2023/05/02 12:58:59;;;;;;;;;;;12.00;99.20;;;;;;5071449;28;19924;-87
2023/05/02 13:01:25;;;;;;;;;;;11.50;98.40;;;;;;5034769;28;20286;-87
2023/05/02 13:03:51;;;;;;;;;;;11.60;99.90;;;;;;5054875;28;19963;-87
2023/05/02 13:06:17;;;;;;;;;;;9.70;99.90;;;;;;5054970;28;19940;-86
2023/05/02 13:08:43;;;;;;;;;;;11.90;97.50;;;;;;5054944;28;19955;-87
2023/05/02 13:11:08;;;;;;;;;;;12.20;99.90;;;;;;5051951;28;20452;-87
2023/05/02 13:13:37;;;;;;;;;;;12.10;99.90;;;;;;5039189;28;20326;-87
2023/05/02 13:16:02;;;;;;;;;;;12.40;99.30;;;;;;5052036;28;20004;-86
2023/05/02 13:18:28;;;;;;;;;;;12.90;99.90;;;;;;5034674;28;19968;-86
2023/05/02 13:20:54;;;;;;;;;;;12.00;99.90;;;;;;5054520;28;19932;-88
2023/05/02 13:23:22;;;;;;;;;;;11.60;99.90;;;;;;5053941;28;20334;-88
2023/05/02 13:25:48;;;;;;;;;;;11.60;99.90;;;;;;5074604;28;19924;-87
2023/05/02 13:28:17;;;;;;;;;;;11.40;99.90;;;;;;5032404;28;19936;-86
2023/05/02 13:30:43;;;;;;;;;;;12.90;99.90;;;;;;5047520;28;20131;-85
2023/05/02 13:33:09;;;;;;;;;;;11.70;99.90;;;;;;5041289;28;19936;-86
2023/05/02 13:35:34;;;;;;;;;;;12.00;99.90;;;;;;5037988;28;19968;-87
2023/05/02 13:38:00;;;;;;;;;;;11.80;99.90;;;;;;5052421;28;20011;-86
2023/05/02 13:40:26;;;;;;;;;;;11.80;99.90;;;;;;5054533;28;19924;-86
2023/05/02 13:42:51;;;;;;;;;;;12.00;99.90;;;;;;5054233;28;19924;-86
2023/05/02 13:45:17;;;;;;;;;;;11.80;99.90;;;;;;5037402;28;19947;-86
2023/05/02 13:47:43;;;;;;;;;;;11.80;99.90;;;;;;5037928;28;20398;-86
2023/05/02 13:50:09;;;;;;;;;;;11.70;99.90;;;;;;5058183;28;19924;-86
2023/05/02 13:52:34;;;;;;;;;;;12.00;99.90;;;;;;5057241;28;19925;-86
2023/05/02 13:55:00;;;;;;;;;;;11.70;99.90;;;;;;5054599;28;19925;-86
2023/05/02 13:57:28;;;;;;;;;;;11.70;99.90;;;;;;5058937;28;19935;-87
2023/05/02 13:59:57;;;;;;;;;;;11.50;99.90;;;;;;5044657;28;19993;-86
2023/05/02 14:02:22;;;;;;;;;;;11.70;99.90;;;;;;5054687;28;19925;-87
2023/05/02 14:04:48;;;;;;;;;;;11.60;99.90;;;;;;5057333;28;19931;-86
2023/05/02 14:07:14;;;;;;;;;;;11.50;99.90;;;;;;5058659;28;20360;-87
2023/05/02 14:09:39;;;;;;;;;;;11.60;99.90;;;;;;5058396;28;20006;-87
2023/05/02 14:12:05;;;;;;;;;;;11.50;99.90;;;;;;5054939;28;20019;-87
2023/05/02 14:14:36;;;;;;;;;;;11.50;99.90;;;;;;5055006;28;19979;-87
2023/05/02 14:17:02;;;;;;;;;;;11.70;99.90;;;;;;5068910;28;19951;-87
2023/05/02 14:19:27;;;;;;;;;;;11.90;99.90;;;;;;5032675;28;19925;-87
2023/05/02 14:21:53;;;;;;;;;;;11.80;99.90;;;;;;5054030;28;19929;-86
2023/05/02 14:24:19;;;;;;;;;;;11.70;99.90;;;;;;5040416;28;19924;-87
2023/05/02 14:26:47;;;;;;;;;;;11.70;99.90;;;;;;5054945;28;19990;-86
2023/05/02 14:29:12;;;;;;;;;;;12.10;99.90;;;;;;5037053;28;19943;-87